sensor_id;sensor_type;location;lat;lon;timestamp;P1;durP1;ratioP1;P2;durP2;ratioP2
73084;SDS011;62974;49.460;10.892;2023-07-30T00:01:36;2.67;;;1.20;;
73084;SDS011;62974;49.460;10.892;2023-07-30T00:04:03;2.10;;;1.20;;
73084;SDS011;62974;49.460;10.892;2023-07-30T00:06:31;2.03;;;1.20;;
73084;SDS011;62974;49.460;10.892;2023-07-30T00:09:00;2.17;;;1.10;;
73084;SDS011;62974;49.460;10.892;2023-07-30T00:11:28;2.33;;;1.15;;
73084;SDS011;62974;49.460;10.892;2023-07-30T00:13:55;2.53;;;1.08;;
73084;SDS011;62974;49.460;10.892;2023-07-30T00:16:24;2.03;;;1.00;;
73084;SDS011;62974;49.460;10.892;2023-07-30T00:18:52;4.88;;;1.50;;
73084;SDS011;62974;49.460;10.892;2023-07-30T00:21:20;2.47;;;1.38;;
73084;SDS011;62974;49.460;10.892;2023-07-30T00:23:47;3.83;;;1.35;;
73084;SDS011;62974;49.460;10.892;2023-07-30T00:26:16;2.58;;;1.67;;
73084;SDS011;62974;49.460;10.892;2023-07-30T00:28:44;2.47;;;1.20;;
73084;SDS011;62974;49.460;10.892;2023-07-30T00:31:11;4.10;;;1.50;;
73084;SDS011;62974;49.460;10.892;2023-07-30T00:33:39;3.85;;;1.30;;
73084;SDS011;62974;49.460;10.892;2023-07-30T00:36:07;4.22;;;1.58;;
73084;SDS011;62974;49.460;10.892;2023-07-30T00:38:34;2.92;;;1.40;;
73084;SDS011;62974;49.460;10.892;2023-07-30T00:41:02;3.42;;;1.50;;
73084;SDS011;62974;49.460;10.892;2023-07-30T00:43:31;3.63;;;1.60;;
73084;SDS011;62974;49.460;10.892;2023-07-30T00:45:59;2.45;;;1.23;;
73084;SDS011;62974;49.460;10.892;2023-07-30T00:48:27;2.78;;;1.10;;
73084;SDS011;62974;49.460;10.892;2023-07-30T00:53:22;4.38;;;1.40;;
73084;SDS011;62974;49.460;10.892;2023-07-30T00:55:53;3.28;;;1.50;;
73084;SDS011;62974;49.460;10.892;2023-07-30T00:58:21;2.90;;;1.33;;
73084;SDS011;62974;49.460;10.892;2023-07-30T01:00:52;3.33;;;1.42;;
73084;SDS011;62974;49.460;10.892;2023-07-30T01:03:21;3.33;;;1.48;;
73084;SDS011;62974;49.460;10.892;2023-07-30T01:05:49;5.25;;;1.65;;
73084;SDS011;62974;49.460;10.892;2023-07-30T01:08:17;3.53;;;1.90;;
73084;SDS011;62974;49.460;10.892;2023-07-30T01:10:45;2.67;;;1.50;;
73084;SDS011;62974;49.460;10.892;2023-07-30T01:13:12;5.20;;;1.88;;
73084;SDS011;62974;49.460;10.892;2023-07-30T01:15:42;5.22;;;1.98;;
73084;SDS011;62974;49.460;10.892;2023-07-30T01:18:12;5.07;;;1.75;;
73084;SDS011;62974;49.460;10.892;2023-07-30T01:20:40;3.30;;;1.50;;
73084;SDS011;62974;49.460;10.892;2023-07-30T01:23:09;3.00;;;1.50;;
73084;SDS011;62974;49.460;10.892;2023-07-30T01:25:36;3.47;;;1.10;;
73084;SDS011;62974;49.460;10.892;2023-07-30T01:28:04;3.63;;;1.50;;
73084;SDS011;62974;49.460;10.892;2023-07-30T01:30:35;2.55;;;1.42;;
73084;SDS011;62974;49.460;10.892;2023-07-30T01:33:07;4.15;;;1.80;;
73084;SDS011;62974;49.460;10.892;2023-07-30T01:35:36;4.00;;;2.00;;
73084;SDS011;62974;49.460;10.892;2023-07-30T01:38:05;5.65;;;1.90;;
73084;SDS011;62974;49.460;10.892;2023-07-30T01:40:36;2.83;;;1.73;;
73084;SDS011;62974;49.460;10.892;2023-07-30T01:43:03;5.70;;;1.38;;
73084;SDS011;62974;49.460;10.892;2023-07-30T01:45:31;4.47;;;1.70;;
73084;SDS011;62974;49.460;10.892;2023-07-30T01:48:00;3.40;;;1.77;;
73084;SDS011;62974;49.460;10.892;2023-07-30T01:50:28;2.88;;;1.77;;
73084;SDS011;62974;49.460;10.892;2023-07-30T01:52:55;3.45;;;1.60;;
73084;SDS011;62974;49.460;10.892;2023-07-30T01:55:23;4.53;;;1.67;;
73084;SDS011;62974;49.460;10.892;2023-07-30T01:57:52;3.10;;;1.80;;
73084;SDS011;62974;49.460;10.892;2023-07-30T02:00:19;2.95;;;1.70;;
73084;SDS011;62974;49.460;10.892;2023-07-30T02:02:47;3.65;;;1.80;;
73084;SDS011;62974;49.460;10.892;2023-07-30T02:05:14;2.88;;;1.60;;
73084;SDS011;62974;49.460;10.892;2023-07-30T02:07:42;4.90;;;1.50;;
73084;SDS011;62974;49.460;10.892;2023-07-30T02:10:10;3.85;;;1.60;;
73084;SDS011;62974;49.460;10.892;2023-07-30T02:12:37;3.65;;;1.83;;
73084;SDS011;62974;49.460;10.892;2023-07-30T02:15:07;4.22;;;1.70;;
73084;SDS011;62974;49.460;10.892;2023-07-30T02:17:35;4.15;;;1.67;;
73084;SDS011;62974;49.460;10.892;2023-07-30T02:20:03;3.10;;;1.70;;
73084;SDS011;62974;49.460;10.892;2023-07-30T02:22:31;3.95;;;2.00;;
73084;SDS011;62974;49.460;10.892;2023-07-30T02:24:59;2.40;;;1.50;;
73084;SDS011;62974;49.460;10.892;2023-07-30T02:27:26;3.20;;;1.60;;
73084;SDS011;62974;49.460;10.892;2023-07-30T02:29:54;2.50;;;1.45;;
73084;SDS011;62974;49.460;10.892;2023-07-30T02:32:23;3.03;;;1.60;;
73084;SDS011;62974;49.460;10.892;2023-07-30T02:34:50;3.85;;;2.05;;
73084;SDS011;62974;49.460;10.892;2023-07-30T02:37:18;3.78;;;1.77;;
73084;SDS011;62974;49.460;10.892;2023-07-30T02:39:45;4.85;;;2.05;;
73084;SDS011;62974;49.460;10.892;2023-07-30T02:42:13;3.78;;;1.75;;
73084;SDS011;62974;49.460;10.892;2023-07-30T02:44:40;3.78;;;1.65;;
73084;SDS011;62974;49.460;10.892;2023-07-30T02:47:08;3.00;;;1.55;;
73084;SDS011;62974;49.460;10.892;2023-07-30T02:49:37;6.90;;;3.42;;
73084;SDS011;62974;49.460;10.892;2023-07-30T02:52:04;3.28;;;2.08;;
73084;SDS011;62974;49.460;10.892;2023-07-30T02:57:00;2.95;;;1.83;;
73084;SDS011;62974;49.460;10.892;2023-07-30T02:59:27;3.33;;;1.88;;
73084;SDS011;62974;49.460;10.892;2023-07-30T03:01:55;2.90;;;1.90;;
73084;SDS011;62974;49.460;10.892;2023-07-30T03:04:23;3.58;;;1.85;;
73084;SDS011;62974;49.460;10.892;2023-07-30T03:06:51;3.13;;;1.88;;
73084;SDS011;62974;49.460;10.892;2023-07-30T03:09:19;4.20;;;2.00;;
73084;SDS011;62974;49.460;10.892;2023-07-30T03:11:46;3.55;;;1.92;;
73084;SDS011;62974;49.460;10.892;2023-07-30T03:14:14;3.00;;;1.88;;
73084;SDS011;62974;49.460;10.892;2023-07-30T03:16:42;5.32;;;1.83;;
73084;SDS011;62974;49.460;10.892;2023-07-30T03:19:09;6.88;;;2.25;;
73084;SDS011;62974;49.460;10.892;2023-07-30T03:21:37;2.80;;;1.77;;
73084;SDS011;62974;49.460;10.892;2023-07-30T03:24:06;4.68;;;1.83;;
73084;SDS011;62974;49.460;10.892;2023-07-30T03:26:33;2.90;;;1.65;;
73084;SDS011;62974;49.460;10.892;2023-07-30T03:29:01;4.22;;;2.15;;
73084;SDS011;62974;49.460;10.892;2023-07-30T03:31:29;3.58;;;1.90;;
73084;SDS011;62974;49.460;10.892;2023-07-30T03:33:56;2.50;;;1.50;;
73084;SDS011;62974;49.460;10.892;2023-07-30T03:36:24;3.28;;;1.70;;
73084;SDS011;62974;49.460;10.892;2023-07-30T03:38:52;2.63;;;1.77;;
73084;SDS011;62974;49.460;10.892;2023-07-30T03:41:21;2.88;;;1.88;;
73084;SDS011;62974;49.460;10.892;2023-07-30T03:43:48;2.60;;;1.75;;
73084;SDS011;62974;49.460;10.892;2023-07-30T03:46:16;3.35;;;1.58;;
73084;SDS011;62974;49.460;10.892;2023-07-30T03:48:44;3.55;;;2.03;;
73084;SDS011;62974;49.460;10.892;2023-07-30T03:51:11;3.45;;;1.95;;
73084;SDS011;62974;49.460;10.892;2023-07-30T03:53:40;4.85;;;1.83;;
73084;SDS011;62974;49.460;10.892;2023-07-30T03:56:08;3.90;;;1.65;;
73084;SDS011;62974;49.460;10.892;2023-07-30T03:58:37;3.95;;;1.52;;
73084;SDS011;62974;49.460;10.892;2023-07-30T04:01:05;2.53;;;1.52;;
73084;SDS011;62974;49.460;10.892;2023-07-30T04:03:35;2.75;;;1.70;;
73084;SDS011;62974;49.460;10.892;2023-07-30T04:06:02;6.20;;;1.55;;
73084;SDS011;62974;49.460;10.892;2023-07-30T04:08:30;3.35;;;1.80;;
73084;SDS011;62974;49.460;10.892;2023-07-30T04:10:58;4.03;;;1.77;;
73084;SDS011;62974;49.460;10.892;2023-07-30T04:13:25;4.43;;;1.63;;
73084;SDS011;62974;49.460;10.892;2023-07-30T04:15:54;3.72;;;1.60;;
73084;SDS011;62974;49.460;10.892;2023-07-30T04:18:22;3.38;;;1.60;;
73084;SDS011;62974;49.460;10.892;2023-07-30T04:20:49;4.03;;;2.03;;
73084;SDS011;62974;49.460;10.892;2023-07-30T04:23:17;4.10;;;1.70;;
73084;SDS011;62974;49.460;10.892;2023-07-30T04:25:44;5.35;;;2.15;;
73084;SDS011;62974;49.460;10.892;2023-07-30T04:28:12;3.20;;;1.80;;
73084;SDS011;62974;49.460;10.892;2023-07-30T04:30:40;2.85;;;1.40;;
73084;SDS011;62974;49.460;10.892;2023-07-30T04:33:08;4.18;;;1.67;;
73084;SDS011;62974;49.460;10.892;2023-07-30T04:35:36;4.65;;;1.70;;
73084;SDS011;62974;49.460;10.892;2023-07-30T04:38:04;2.75;;;1.35;;
73084;SDS011;62974;49.460;10.892;2023-07-30T04:40:31;3.40;;;1.48;;
73084;SDS011;62974;49.460;10.892;2023-07-30T04:42:59;4.50;;;1.92;;
73084;SDS011;62974;49.460;10.892;2023-07-30T04:45:26;2.58;;;1.52;;
73084;SDS011;62974;49.460;10.892;2023-07-30T04:47:54;2.85;;;1.83;;
73084;SDS011;62974;49.460;10.892;2023-07-30T04:50:23;3.35;;;1.75;;
73084;SDS011;62974;49.460;10.892;2023-07-30T04:52:51;3.70;;;1.70;;
73084;SDS011;62974;49.460;10.892;2023-07-30T04:55:18;3.63;;;2.00;;
73084;SDS011;62974;49.460;10.892;2023-07-30T04:57:46;3.20;;;1.88;;
73084;SDS011;62974;49.460;10.892;2023-07-30T05:00:13;3.63;;;1.95;;
73084;SDS011;62974;49.460;10.892;2023-07-30T05:02:41;3.20;;;1.85;;
73084;SDS011;62974;49.460;10.892;2023-07-30T05:05:09;4.15;;;1.77;;
73084;SDS011;62974;49.460;10.892;2023-07-30T05:07:37;3.83;;;1.60;;
73084;SDS011;62974;49.460;10.892;2023-07-30T05:10:05;2.85;;;1.77;;
73084;SDS011;62974;49.460;10.892;2023-07-30T05:12:36;2.97;;;1.80;;
73084;SDS011;62974;49.460;10.892;2023-07-30T05:15:04;3.42;;;1.70;;
73084;SDS011;62974;49.460;10.892;2023-07-30T05:17:33;2.42;;;1.58;;
73084;SDS011;62974;49.460;10.892;2023-07-30T05:22:28;3.40;;;1.83;;
73084;SDS011;62974;49.460;10.892;2023-07-30T05:24:57;4.80;;;1.77;;
73084;SDS011;62974;49.460;10.892;2023-07-30T05:27:24;4.78;;;1.83;;
73084;SDS011;62974;49.460;10.892;2023-07-30T05:29:54;3.30;;;1.63;;
73084;SDS011;62974;49.460;10.892;2023-07-30T05:32:21;4.93;;;1.55;;
73084;SDS011;62974;49.460;10.892;2023-07-30T05:34:49;4.10;;;1.58;;
73084;SDS011;62974;49.460;10.892;2023-07-30T05:37:17;4.18;;;1.80;;
73084;SDS011;62974;49.460;10.892;2023-07-30T05:39:44;2.40;;;1.60;;
73084;SDS011;62974;49.460;10.892;2023-07-30T05:42:13;2.25;;;1.48;;
73084;SDS011;62974;49.460;10.892;2023-07-30T05:44:41;3.78;;;1.40;;
73084;SDS011;62974;49.460;10.892;2023-07-30T05:47:08;3.92;;;1.52;;
73084;SDS011;62974;49.460;10.892;2023-07-30T05:49:36;3.20;;;1.70;;
73084;SDS011;62974;49.460;10.892;2023-07-30T05:52:04;5.70;;;1.88;;
73084;SDS011;62974;49.460;10.892;2023-07-30T05:54:32;3.08;;;1.40;;
73084;SDS011;62974;49.460;10.892;2023-07-30T05:57:00;2.90;;;1.48;;
73084;SDS011;62974;49.460;10.892;2023-07-30T05:59:28;2.35;;;1.25;;
73084;SDS011;62974;49.460;10.892;2023-07-30T06:01:56;6.07;;;1.70;;
73084;SDS011;62974;49.460;10.892;2023-07-30T06:04:25;2.72;;;1.40;;
73084;SDS011;62974;49.460;10.892;2023-07-30T06:06:52;2.75;;;1.42;;
73084;SDS011;62974;49.460;10.892;2023-07-30T06:09:20;2.53;;;1.48;;
73084;SDS011;62974;49.460;10.892;2023-07-30T06:11:48;2.22;;;1.35;;
73084;SDS011;62974;49.460;10.892;2023-07-30T06:14:15;3.80;;;1.48;;
73084;SDS011;62974;49.460;10.892;2023-07-30T06:16:44;3.00;;;1.45;;
73084;SDS011;62974;49.460;10.892;2023-07-30T06:19:12;3.75;;;1.45;;
73084;SDS011;62974;49.460;10.892;2023-07-30T06:21:39;3.58;;;1.50;;
73084;SDS011;62974;49.460;10.892;2023-07-30T06:24:06;4.13;;;1.92;;
73084;SDS011;62974;49.460;10.892;2023-07-30T06:26:34;2.38;;;1.60;;
73084;SDS011;62974;49.460;10.892;2023-07-30T06:29:02;2.10;;;1.33;;
73084;SDS011;62974;49.460;10.892;2023-07-30T06:31:29;3.00;;;1.50;;
73084;SDS011;62974;49.460;10.892;2023-07-30T06:33:58;2.60;;;1.30;;
73084;SDS011;62974;49.460;10.892;2023-07-30T06:36:26;2.92;;;1.48;;
73084;SDS011;62974;49.460;10.892;2023-07-30T06:38:53;2.72;;;1.60;;
73084;SDS011;62974;49.460;10.892;2023-07-30T06:41:21;3.58;;;1.55;;
73084;SDS011;62974;49.460;10.892;2023-07-30T06:43:48;1.80;;;1.20;;
73084;SDS011;62974;49.460;10.892;2023-07-30T06:46:16;2.28;;;1.25;;
73084;SDS011;62974;49.460;10.892;2023-07-30T06:48:44;2.40;;;1.50;;
73084;SDS011;62974;49.460;10.892;2023-07-30T06:51:12;3.72;;;1.70;;
73084;SDS011;62974;49.460;10.892;2023-07-30T06:53:40;1.90;;;1.33;;
73084;SDS011;62974;49.460;10.892;2023-07-30T06:56:07;3.08;;;1.65;;
73084;SDS011;62974;49.460;10.892;2023-07-30T06:58:35;2.05;;;1.33;;
73084;SDS011;62974;49.460;10.892;2023-07-30T07:01:05;2.20;;;1.50;;
73084;SDS011;62974;49.460;10.892;2023-07-30T07:03:33;2.78;;;1.50;;
73084;SDS011;62974;49.460;10.892;2023-07-30T07:06:01;2.35;;;1.45;;
73084;SDS011;62974;49.460;10.892;2023-07-30T07:08:30;2.42;;;1.52;;
73084;SDS011;62974;49.460;10.892;2023-07-30T07:10:57;2.35;;;1.50;;
73084;SDS011;62974;49.460;10.892;2023-07-30T07:13:25;5.65;;;1.60;;
73084;SDS011;62974;49.460;10.892;2023-07-30T07:15:52;3.25;;;1.45;;
73084;SDS011;62974;49.460;10.892;2023-07-30T07:18:20;2.20;;;1.23;;
73084;SDS011;62974;49.460;10.892;2023-07-30T07:20:47;2.92;;;1.42;;
73084;SDS011;62974;49.460;10.892;2023-07-30T07:23:15;2.15;;;1.10;;
73084;SDS011;62974;49.460;10.892;2023-07-30T07:25:44;1.77;;;1.45;;
73084;SDS011;62974;49.460;10.892;2023-07-30T07:28:12;2.20;;;1.63;;
73084;SDS011;62974;49.460;10.892;2023-07-30T07:30:40;2.92;;;1.55;;
73084;SDS011;62974;49.460;10.892;2023-07-30T07:33:07;2.35;;;1.50;;
73084;SDS011;62974;49.460;10.892;2023-07-30T07:35:38;2.60;;;1.33;;
73084;SDS011;62974;49.460;10.892;2023-07-30T07:38:06;2.35;;;1.42;;
73084;SDS011;62974;49.460;10.892;2023-07-30T07:40:35;2.53;;;1.40;;
73084;SDS011;62974;49.460;10.892;2023-07-30T07:43:07;2.13;;;1.27;;
73084;SDS011;62974;49.460;10.892;2023-07-30T07:45:35;2.33;;;1.38;;
73084;SDS011;62974;49.460;10.892;2023-07-30T07:48:02;2.75;;;1.27;;
73084;SDS011;62974;49.460;10.892;2023-07-30T07:50:30;2.40;;;1.50;;
73084;SDS011;62974;49.460;10.892;2023-07-30T07:52:58;3.67;;;1.77;;
73084;SDS011;62974;49.460;10.892;2023-07-30T07:55:25;3.17;;;1.70;;
73084;SDS011;62974;49.460;10.892;2023-07-30T07:57:53;2.28;;;1.40;;
73084;SDS011;62974;49.460;10.892;2023-07-30T08:00:21;4.65;;;1.83;;
73084;SDS011;62974;49.460;10.892;2023-07-30T08:02:49;2.58;;;1.58;;
73084;SDS011;62974;49.460;10.892;2023-07-30T08:05:17;5.28;;;2.10;;
73084;SDS011;62974;49.460;10.892;2023-07-30T08:07:45;2.20;;;1.40;;
73084;SDS011;62974;49.460;10.892;2023-07-30T08:10:14;2.08;;;1.30;;
73084;SDS011;62974;49.460;10.892;2023-07-30T08:12:41;3.55;;;1.50;;
73084;SDS011;62974;49.460;10.892;2023-07-30T08:15:09;2.42;;;1.48;;
73084;SDS011;62974;49.460;10.892;2023-07-30T08:17:38;1.92;;;1.33;;
73084;SDS011;62974;49.460;10.892;2023-07-30T08:20:06;2.70;;;1.50;;
73084;SDS011;62974;49.460;10.892;2023-07-30T08:22:34;2.72;;;1.52;;
73084;SDS011;62974;49.460;10.892;2023-07-30T08:25:02;2.05;;;1.55;;
73084;SDS011;62974;49.460;10.892;2023-07-30T08:27:31;2.58;;;1.40;;
73084;SDS011;62974;49.460;10.892;2023-07-30T08:29:58;2.50;;;1.83;;
73084;SDS011;62974;49.460;10.892;2023-07-30T08:32:26;2.03;;;1.50;;
73084;SDS011;62974;49.460;10.892;2023-07-30T08:34:55;4.03;;;1.77;;
73084;SDS011;62974;49.460;10.892;2023-07-30T08:37:22;2.35;;;1.50;;
73084;SDS011;62974;49.460;10.892;2023-07-30T08:39:51;2.33;;;1.40;;
73084;SDS011;62974;49.460;10.892;2023-07-30T08:42:19;2.35;;;1.40;;
73084;SDS011;62974;49.460;10.892;2023-07-30T08:44:46;3.83;;;1.42;;
73084;SDS011;62974;49.460;10.892;2023-07-30T08:47:14;1.85;;;1.40;;
73084;SDS011;62974;49.460;10.892;2023-07-30T08:52:13;3.08;;;1.40;;
73084;SDS011;62974;49.460;10.892;2023-07-30T08:54:44;5.07;;;1.55;;
73084;SDS011;62974;49.460;10.892;2023-07-30T08:59:47;3.60;;;1.30;;
73084;SDS011;62974;49.460;10.892;2023-07-30T09:02:21;2.38;;;1.45;;
73084;SDS011;62974;49.460;10.892;2023-07-30T09:04:53;1.75;;;1.30;;
73084;SDS011;62974;49.460;10.892;2023-07-30T09:07:28;2.20;;;1.17;;
73084;SDS011;62974;49.460;10.892;2023-07-30T09:09:56;2.92;;;1.50;;
73084;SDS011;62974;49.460;10.892;2023-07-30T09:12:25;1.75;;;1.13;;
73084;SDS011;62974;49.460;10.892;2023-07-30T09:14:53;1.95;;;1.00;;
73084;SDS011;62974;49.460;10.892;2023-07-30T09:17:21;1.83;;;1.10;;
73084;SDS011;62974;49.460;10.892;2023-07-30T09:22:20;1.60;;;1.02;;
73084;SDS011;62974;49.460;10.892;2023-07-30T09:27:20;2.50;;;1.00;;
73084;SDS011;62974;49.460;10.892;2023-07-30T09:29:52;1.70;;;1.20;;
73084;SDS011;62974;49.460;10.892;2023-07-30T09:32:25;2.80;;;1.15;;
73084;SDS011;62974;49.460;10.892;2023-07-30T09:34:53;1.58;;;1.10;;
73084;SDS011;62974;49.460;10.892;2023-07-30T09:39:49;1.42;;;1.10;;
73084;SDS011;62974;49.460;10.892;2023-07-30T09:42:18;1.50;;;0.90;;
73084;SDS011;62974;49.460;10.892;2023-07-30T09:44:47;1.58;;;0.95;;
73084;SDS011;62974;49.460;10.892;2023-07-30T09:47:15;1.08;;;0.82;;
73084;SDS011;62974;49.460;10.892;2023-07-30T09:49:43;1.80;;;1.02;;
73084;SDS011;62974;49.460;10.892;2023-07-30T09:54:39;1.45;;;0.85;;
73084;SDS011;62974;49.460;10.892;2023-07-30T09:57:07;1.40;;;0.70;;
73084;SDS011;62974;49.460;10.892;2023-07-30T09:59:36;1.70;;;0.93;;
73084;SDS011;62974;49.460;10.892;2023-07-30T10:02:04;1.23;;;0.77;;
73084;SDS011;62974;49.460;10.892;2023-07-30T10:04:35;1.70;;;0.80;;
73084;SDS011;62974;49.460;10.892;2023-07-30T10:07:10;1.52;;;0.90;;
73084;SDS011;62974;49.460;10.892;2023-07-30T10:09:43;1.38;;;0.88;;
73084;SDS011;62974;49.460;10.892;2023-07-30T10:12:15;1.45;;;0.90;;
73084;SDS011;62974;49.460;10.892;2023-07-30T10:14:46;2.08;;;1.10;;
73084;SDS011;62974;49.460;10.892;2023-07-30T10:17:14;4.07;;;1.33;;
73084;SDS011;62974;49.460;10.892;2023-07-30T10:19:46;1.75;;;1.02;;
73084;SDS011;62974;49.460;10.892;2023-07-30T10:22:22;3.08;;;1.40;;
73084;SDS011;62974;49.460;10.892;2023-07-30T10:24:55;1.70;;;1.20;;
73084;SDS011;62974;49.460;10.892;2023-07-30T10:27:24;1.73;;;1.08;;
73084;SDS011;62974;49.460;10.892;2023-07-30T10:32:59;3.60;;;1.20;;
73084;SDS011;62974;49.460;10.892;2023-07-30T10:35:35;2.33;;;1.08;;
73084;SDS011;62974;49.460;10.892;2023-07-30T10:38:16;3.33;;;1.40;;
73084;SDS011;62974;49.460;10.892;2023-07-30T10:41:00;4.45;;;1.05;;
73084;SDS011;62974;49.460;10.892;2023-07-30T10:43:29;1.80;;;1.20;;
73084;SDS011;62974;49.460;10.892;2023-07-30T10:45:57;2.63;;;1.30;;
73084;SDS011;62974;49.460;10.892;2023-07-30T10:48:33;1.85;;;1.10;;
73084;SDS011;62974;49.460;10.892;2023-07-30T10:51:02;1.83;;;1.00;;
73084;SDS011;62974;49.460;10.892;2023-07-30T10:53:31;1.83;;;0.90;;
73084;SDS011;62974;49.460;10.892;2023-07-30T10:55:59;1.15;;;0.80;;
73084;SDS011;62974;49.460;10.892;2023-07-30T10:58:29;1.77;;;0.93;;
73084;SDS011;62974;49.460;10.892;2023-07-30T11:00:57;2.20;;;1.10;;
73084;SDS011;62974;49.460;10.892;2023-07-30T11:03:25;1.10;;;0.70;;
73084;SDS011;62974;49.460;10.892;2023-07-30T11:05:55;1.40;;;0.70;;
73084;SDS011;62974;49.460;10.892;2023-07-30T11:08:31;1.27;;;0.75;;
73084;SDS011;62974;49.460;10.892;2023-07-30T11:10:59;1.83;;;0.73;;
73084;SDS011;62974;49.460;10.892;2023-07-30T11:13:27;1.65;;;0.93;;
73084;SDS011;62974;49.460;10.892;2023-07-30T11:15:55;2.00;;;0.93;;
73084;SDS011;62974;49.460;10.892;2023-07-30T11:18:22;1.90;;;0.85;;
73084;SDS011;62974;49.460;10.892;2023-07-30T11:20:52;3.25;;;1.30;;
73084;SDS011;62974;49.460;10.892;2023-07-30T11:23:31;2.25;;;1.45;;
73084;SDS011;62974;49.460;10.892;2023-07-30T11:26:00;4.03;;;2.00;;
73084;SDS011;62974;49.460;10.892;2023-07-30T11:28:28;3.80;;;2.03;;
73084;SDS011;62974;49.460;10.892;2023-07-30T11:31:01;2.97;;;1.75;;
73084;SDS011;62974;49.460;10.892;2023-07-30T11:33:29;1.15;;;0.85;;
73084;SDS011;62974;49.460;10.892;2023-07-30T11:35:58;1.75;;;1.02;;
73084;SDS011;62974;49.460;10.892;2023-07-30T11:38:29;2.22;;;1.10;;
73084;SDS011;62974;49.460;10.892;2023-07-30T11:40:58;1.90;;;1.20;;
73084;SDS011;62974;49.460;10.892;2023-07-30T11:43:26;1.80;;;1.20;;
73084;SDS011;62974;49.460;10.892;2023-07-30T11:48:51;1.85;;;1.13;;
73084;SDS011;62974;49.460;10.892;2023-07-30T11:51:20;2.63;;;1.00;;
73084;SDS011;62974;49.460;10.892;2023-07-30T11:53:51;2.42;;;1.33;;
73084;SDS011;62974;49.460;10.892;2023-07-30T11:56:20;1.92;;;0.95;;
73084;SDS011;62974;49.460;10.892;2023-07-30T11:58:49;1.63;;;1.10;;
73084;SDS011;62974;49.460;10.892;2023-07-30T12:01:18;2.28;;;1.02;;
73084;SDS011;62974;49.460;10.892;2023-07-30T12:03:46;1.83;;;0.82;;
73084;SDS011;62974;49.460;10.892;2023-07-30T12:06:14;1.88;;;1.05;;
73084;SDS011;62974;49.460;10.892;2023-07-30T12:08:41;5.55;;;1.20;;
73084;SDS011;62974;49.460;10.892;2023-07-30T12:11:10;1.90;;;1.20;;
73084;SDS011;62974;49.460;10.892;2023-07-30T12:13:44;2.78;;;1.20;;
73084;SDS011;62974;49.460;10.892;2023-07-30T12:16:13;2.70;;;1.50;;
73084;SDS011;62974;49.460;10.892;2023-07-30T12:18:44;2.30;;;1.13;;
73084;SDS011;62974;49.460;10.892;2023-07-30T12:21:12;2.38;;;1.20;;
73084;SDS011;62974;49.460;10.892;2023-07-30T12:23:40;2.35;;;1.30;;
73084;SDS011;62974;49.460;10.892;2023-07-30T12:26:07;2.97;;;1.27;;
73084;SDS011;62974;49.460;10.892;2023-07-30T12:28:36;1.75;;;1.25;;
73084;SDS011;62974;49.460;10.892;2023-07-30T12:31:04;2.38;;;1.25;;
73084;SDS011;62974;49.460;10.892;2023-07-30T12:33:31;1.80;;;1.38;;
73084;SDS011;62974;49.460;10.892;2023-07-30T12:35:59;3.70;;;1.30;;
73084;SDS011;62974;49.460;10.892;2023-07-30T12:38:27;4.82;;;1.48;;
73084;SDS011;62974;49.460;10.892;2023-07-30T12:40:54;1.90;;;1.20;;
73084;SDS011;62974;49.460;10.892;2023-07-30T12:43:22;1.80;;;1.10;;
73084;SDS011;62974;49.460;10.892;2023-07-30T12:45:51;2.13;;;1.30;;
73084;SDS011;62974;49.460;10.892;2023-07-30T12:48:19;2.58;;;1.27;;
73084;SDS011;62974;49.460;10.892;2023-07-30T12:50:47;2.72;;;1.20;;
73084;SDS011;62974;49.460;10.892;2023-07-30T12:53:14;2.13;;;1.30;;
73084;SDS011;62974;49.460;10.892;2023-07-30T12:55:42;1.95;;;1.10;;
73084;SDS011;62974;49.460;10.892;2023-07-30T12:58:09;3.72;;;1.35;;
73084;SDS011;62974;49.460;10.892;2023-07-30T13:00:38;2.28;;;1.20;;
73084;SDS011;62974;49.460;10.892;2023-07-30T13:03:06;3.08;;;1.40;;
73084;SDS011;62974;49.460;10.892;2023-07-30T13:05:34;2.15;;;1.25;;
73084;SDS011;62974;49.460;10.892;2023-07-30T13:08:02;2.33;;;1.15;;
73084;SDS011;62974;49.460;10.892;2023-07-30T13:10:30;3.47;;;1.20;;
73084;SDS011;62974;49.460;10.892;2023-07-30T13:12:57;2.95;;;1.40;;
73084;SDS011;62974;49.460;10.892;2023-07-30T13:15:25;3.78;;;1.40;;
73084;SDS011;62974;49.460;10.892;2023-07-30T13:17:54;1.73;;;0.73;;
73084;SDS011;62974;49.460;10.892;2023-07-30T13:20:23;2.45;;;1.13;;
73084;SDS011;62974;49.460;10.892;2023-07-30T13:22:53;2.03;;;0.80;;
73084;SDS011;62974;49.460;10.892;2023-07-30T13:25:20;3.80;;;1.00;;
73084;SDS011;62974;49.460;10.892;2023-07-30T13:27:47;1.13;;;0.70;;
73084;SDS011;62974;49.460;10.892;2023-07-30T13:30:15;4.13;;;0.90;;
73084;SDS011;62974;49.460;10.892;2023-07-30T13:32:43;2.15;;;1.00;;
73084;SDS011;62974;49.460;10.892;2023-07-30T13:35:11;2.40;;;1.02;;
73084;SDS011;62974;49.460;10.892;2023-07-30T13:37:40;3.70;;;0.93;;
73084;SDS011;62974;49.460;10.892;2023-07-30T13:40:08;1.60;;;1.00;;
73084;SDS011;62974;49.460;10.892;2023-07-30T13:42:36;1.20;;;0.90;;
73084;SDS011;62974;49.460;10.892;2023-07-30T13:45:05;1.10;;;0.70;;
73084;SDS011;62974;49.460;10.892;2023-07-30T13:47:33;3.60;;;1.08;;
73084;SDS011;62974;49.460;10.892;2023-07-30T13:50:00;2.08;;;1.35;;
73084;SDS011;62974;49.460;10.892;2023-07-30T13:52:28;2.08;;;1.35;;
73084;SDS011;62974;49.460;10.892;2023-07-30T13:54:57;2.97;;;1.20;;
73084;SDS011;62974;49.460;10.892;2023-07-30T13:57:25;2.17;;;1.08;;
73084;SDS011;62974;49.460;10.892;2023-07-30T13:59:53;6.72;;;1.17;;
73084;SDS011;62974;49.460;10.892;2023-07-30T14:02:20;2.20;;;1.20;;
73084;SDS011;62974;49.460;10.892;2023-07-30T14:04:48;1.17;;;0.75;;
73084;SDS011;62974;49.460;10.892;2023-07-30T14:07:16;1.40;;;0.88;;
73084;SDS011;62974;49.460;10.892;2023-07-30T14:09:43;2.30;;;1.10;;
73084;SDS011;62974;49.460;10.892;2023-07-30T14:12:12;2.30;;;1.20;;
73084;SDS011;62974;49.460;10.892;2023-07-30T14:14:40;1.17;;;0.43;;
73084;SDS011;62974;49.460;10.892;2023-07-30T14:17:09;1.45;;;0.80;;
73084;SDS011;62974;49.460;10.892;2023-07-30T14:19:41;1.20;;;1.10;;
73084;SDS011;62974;49.460;10.892;2023-07-30T14:22:09;1.35;;;0.60;;
73084;SDS011;62974;49.460;10.892;2023-07-30T14:24:36;1.73;;;0.80;;
73084;SDS011;62974;49.460;10.892;2023-07-30T14:27:06;2.47;;;0.95;;
73084;SDS011;62974;49.460;10.892;2023-07-30T14:29:36;2.00;;;0.70;;
73084;SDS011;62974;49.460;10.892;2023-07-30T14:32:04;2.28;;;0.93;;
73084;SDS011;62974;49.460;10.892;2023-07-30T14:34:32;1.77;;;1.02;;
73084;SDS011;62974;49.460;10.892;2023-07-30T14:37:00;1.75;;;0.82;;
73084;SDS011;62974;49.460;10.892;2023-07-30T14:39:27;1.80;;;1.08;;
73084;SDS011;62974;49.460;10.892;2023-07-30T14:41:55;1.92;;;1.02;;
73084;SDS011;62974;49.460;10.892;2023-07-30T14:44:22;2.10;;;1.02;;
73084;SDS011;62974;49.460;10.892;2023-07-30T14:46:51;4.07;;;1.10;;
73084;SDS011;62974;49.460;10.892;2023-07-30T14:49:19;2.13;;;1.08;;
73084;SDS011;62974;49.460;10.892;2023-07-30T14:54:14;1.77;;;0.90;;
73084;SDS011;62974;49.460;10.892;2023-07-30T14:56:41;1.83;;;0.70;;
73084;SDS011;62974;49.460;10.892;2023-07-30T14:59:09;2.33;;;0.95;;
73084;SDS011;62974;49.460;10.892;2023-07-30T15:01:37;1.75;;;0.90;;
73084;SDS011;62974;49.460;10.892;2023-07-30T15:04:06;1.88;;;0.70;;
73084;SDS011;62974;49.460;10.892;2023-07-30T15:06:34;1.25;;;0.68;;
73084;SDS011;62974;49.460;10.892;2023-07-30T15:09:03;3.13;;;0.75;;
73084;SDS011;62974;49.460;10.892;2023-07-30T15:11:30;1.92;;;0.82;;